Nickelena — WDER746 — position and weather

sailwx.info

Track history (hours):
 
Tides and Currents Weather Stations Pressure Air Temp Water Temp Dewpoint Dewpoint Depression Visibility Wind Speed Wind Dir Waves Ship Positions

Nickelena

Last reported at 2014-Jul-29 09:27 UTC. Time now 2014-Jul-29 18:51 UTC.
Position N 45°40' W 084°15'.

Length 33 m; draft 4.5 m.

Type: Tug. MMSI: 367393840.

Date/timePositionNaut miles runAvg speedWind from/ knotsBaromVisibWave heightAir tempDewpointWater temp
2014-Jul-29 09:27N 45°40' W 084°15'8 8.7
2014-Jul-29 08:33N 45°42' W 084°26'9 8.5
2014-Jul-29 07:33N 45°46' W 084°37'9 8.8
2014-Jul-29 06:33N 45°49' W 084°48'9 8.5
2014-Jul-29 05:33N 45°51' W 085°01'8 8.5
2014-Jul-29 04:33N 45°52' W 085°13'8 8.3
2014-Jul-29 03:33N 45°52' W 085°25'8 8.3
2014-Jul-29 02:33N 45°52' W 085°37'8 8.2
2014-Jul-29 01:33N 45°49' W 085°47'8 8.1
2014-Jul-29 00:33N 45°45' W 085°58'8 8.2
2014-Jul-28 23:33N 45°42' W 086°08'8 8.3
2014-Jul-28 22:33N 45°38' W 086°19'  
Track history (hours):
 
Tides and Currents Weather Stations Pressure Air Temp Water Temp Dewpoint Dewpoint Depression Visibility Wind Speed Wind Dir Waves Ship Positions

Nickelena

Last reported at 2014-Jul-29 09:27 UTC. Time now 2014-Jul-29 18:51 UTC.
Position N 45°40' W 084°15'.

Length 33 m; draft 4.5 m.

Type: Tug. MMSI: 367393840.

Date/timePositionNaut miles runAvg speedWind from/ knotsBaromVisibWave heightAir tempDewpointWater temp
2014-Jul-29 09:27N 45°40' W 084°15'8 8.7
2014-Jul-29 08:33N 45°42' W 084°26'9 8.5
2014-Jul-29 07:33N 45°46' W 084°37'9 8.8
2014-Jul-29 06:33N 45°49' W 084°48'9 8.5
2014-Jul-29 05:33N 45°51' W 085°01'8 8.5
2014-Jul-29 04:33N 45°52' W 085°13'8 8.3
2014-Jul-29 03:33N 45°52' W 085°25'8 8.3
2014-Jul-29 02:33N 45°52' W 085°37'8 8.2
2014-Jul-29 01:33N 45°49' W 085°47'8 8.1
2014-Jul-29 00:33N 45°45' W 085°58'8 8.2
2014-Jul-28 23:33N 45°42' W 086°08'8 8.3
2014-Jul-28 22:33N 45°38' W 086°19'  

Dump ship's entire track history